createdAt,value
2018-08-19T00:00:03.953Z,59.83
2018-08-19T00:01:03.954Z,59.83
2018-08-19T00:02:03.935Z,60.11
2018-08-19T00:03:03.915Z,60.11
2018-08-19T00:04:03.943Z,60.11
2018-08-19T00:05:03.908Z,59.92
2018-08-19T00:06:03.892Z,60.60
2018-08-19T00:07:03.912Z,60.69
2018-08-19T00:08:03.871Z,60.40
2018-08-19T00:09:03.915Z,60.31
2018-08-19T00:10:03.863Z,60.31
2018-08-19T00:11:03.849Z,60.69
2018-08-19T00:12:03.829Z,60.57
2018-08-19T00:13:03.881Z,60.66
2018-08-19T00:14:03.817Z,60.31
2018-08-19T00:15:03.816Z,60.47
2018-08-19T00:16:03.794Z,60.31
2018-08-19T00:17:03.791Z,60.21
2018-08-19T00:18:03.775Z,59.92
2018-08-19T00:19:03.799Z,60.11
2018-08-19T00:20:03.762Z,60.02
2018-08-19T00:21:03.750Z,59.83
2018-08-19T00:22:03.751Z,59.83
2018-08-19T00:23:03.736Z,60.31
2018-08-19T00:24:03.751Z,60.21
2018-08-19T00:25:03.720Z,60.11
2018-08-19T00:26:03.695Z,60.31
2018-08-19T00:27:03.690Z,59.83
2018-08-19T00:28:03.683Z,59.83
2018-08-19T00:29:03.705Z,60.11
2018-08-19T00:30:03.664Z,60.60
2018-08-19T00:31:03.661Z,60.11
2018-08-19T00:32:03.634Z,60.11
2018-08-19T00:33:03.644Z,60.11
2018-08-19T00:34:03.646Z,59.99
2018-08-19T00:35:03.623Z,59.92
2018-08-19T00:36:03.659Z,61.14
2018-08-19T00:37:03.598Z,60.75
2018-08-19T00:38:03.589Z,60.66
2018-08-19T00:39:03.586Z,60.57
2018-08-19T00:40:03.571Z,60.66
2018-08-19T00:41:03.597Z,60.66
2018-08-19T00:42:03.589Z,60.66
2018-08-19T00:43:03.543Z,60.47
2018-08-19T00:44:03.534Z,60.38
2018-08-19T00:45:03.522Z,60.38
2018-08-19T00:46:03.532Z,60.47
2018-08-19T00:47:03.504Z,60.47
2018-08-19T00:48:03.509Z,61.24
2018-08-19T00:49:03.481Z,61.52
2018-08-19T00:50:03.476Z,60.95
2018-08-19T00:51:03.487Z,61.05
2018-08-19T00:52:03.446Z,61.14
2018-08-19T00:53:03.448Z,61.33
2018-08-19T00:54:03.458Z,61.33
2018-08-19T00:55:03.425Z,61.24
2018-08-19T00:56:03.449Z,63.25
2018-08-19T00:57:03.409Z,62.26
2018-08-19T00:58:03.385Z,62.55
2018-08-19T00:59:03.386Z,61.81
2018-08-19T01:00:03.380Z,62.10
2018-08-19T01:01:03.391Z,61.62
2018-08-19T01:02:03.363Z,61.81
2018-08-19T01:03:03.354Z,62.07
2018-08-19T01:04:03.343Z,61.88
2018-08-19T01:05:03.326Z,61.78
2018-08-19T01:06:03.353Z,61.59
2018-08-19T01:07:03.304Z,61.59
2018-08-19T01:08:03.298Z,61.40
2018-08-19T01:09:03.291Z,61.59
2018-08-19T01:10:03.284Z,61.52
2018-08-19T01:11:03.265Z,61.21
2018-08-19T01:12:03.253Z,61.40
2018-08-19T01:13:03.240Z,60.85
2018-08-19T01:14:03.303Z,61.02
2018-08-19T01:15:03.236Z,61.30
2018-08-19T01:16:03.209Z,61.21
2018-08-19T01:17:03.214Z,61.40
2018-08-19T01:18:03.202Z,61.40
2018-08-19T01:19:03.191Z,61.49
2018-08-19T01:20:03.176Z,61.59
2018-08-19T01:21:03.195Z,61.69
2018-08-19T01:22:03.160Z,61.88
2018-08-19T01:23:03.144Z,61.78
2018-08-19T01:24:03.142Z,61.78
2018-08-19T01:25:03.134Z,61.59
2018-08-19T01:26:03.148Z,61.88
2018-08-19T01:27:03.113Z,61.78
2018-08-19T01:28:03.106Z,61.98
2018-08-19T01:29:03.080Z,61.88
2018-08-19T01:30:03.071Z,61.59
2018-08-19T01:31:03.065Z,61.49
2018-08-19T01:32:03.048Z,61.40
2018-08-19T01:33:03.040Z,61.78
2018-08-19T01:34:03.029Z,61.49
2018-08-19T01:35:03.040Z,61.49
2018-08-19T01:36:03.014Z,61.78
2018-08-19T01:37:03.042Z,61.88
2018-08-19T01:38:03.000Z,62.07
2018-08-19T01:39:02.984Z,62.16
2018-08-19T01:40:02.980Z,62.04
2018-08-19T01:41:02.968Z,62.23
2018-08-19T01:42:02.982Z,62.42
2018-08-19T01:43:02.970Z,63.09
2018-08-19T01:44:02.938Z,63.09
2018-08-19T01:45:02.929Z,63.38
2018-08-19T01:46:02.918Z,63.29
2018-08-19T01:47:02.966Z,63.67
2018-08-19T01:48:02.892Z,63.48
2018-08-19T01:49:02.883Z,63.09
2018-08-19T01:50:02.883Z,62.90
2018-08-19T01:51:02.865Z,63.38
2018-08-19T01:52:02.872Z,63.09
2018-08-19T01:53:02.852Z,62.90
2018-08-19T01:54:02.831Z,64.15
2018-08-19T01:55:02.815Z,64.63
2018-08-19T01:56:02.822Z,64.34
2018-08-19T01:57:02.803Z,64.43
2018-08-19T01:58:02.828Z,64.05
2018-08-19T01:59:02.785Z,63.86
2018-08-19T02:00:02.768Z,63.96
2018-08-19T02:01:02.756Z,63.76
2018-08-19T02:02:02.752Z,63.38
2018-08-19T02:03:02.763Z,63.38
2018-08-19T02:04:02.736Z,62.71
2018-08-19T02:05:02.738Z,63.00
2018-08-19T02:06:02.710Z,62.90
2018-08-19T02:07:02.700Z,63.09
2018-08-19T02:08:02.721Z,63.29
2018-08-19T02:09:02.676Z,62.90
2018-08-19T02:10:02.705Z,63.22
2018-08-19T02:11:02.691Z,63.22
2018-08-19T02:12:02.643Z,63.00
2018-08-19T02:13:02.636Z,63.09
2018-08-19T02:14:02.624Z,63.03
2018-08-19T02:15:02.619Z,63.29
2018-08-19T02:16:02.663Z,63.48
2018-08-19T02:17:02.602Z,63.09
2018-08-19T02:18:02.591Z,63.09
2018-08-19T02:19:02.588Z,63.00
2018-08-19T02:20:02.562Z,63.57
2018-08-19T02:21:02.561Z,63.57
2018-08-19T02:22:02.581Z,63.19
2018-08-19T02:23:02.540Z,62.81
2018-08-19T02:24:02.524Z,62.81
2018-08-19T02:25:02.518Z,63.19
2018-08-19T02:26:02.509Z,63.00
2018-08-19T02:27:02.546Z,63.00
2018-08-19T02:28:02.488Z,63.00
2018-08-19T02:29:02.475Z,63.00
2018-08-19T02:30:02.462Z,63.09
2018-08-19T02:31:02.464Z,62.90
2018-08-19T02:32:02.446Z,63.00
2018-08-19T02:33:02.434Z,63.03
2018-08-19T02:34:02.418Z,63.12
2018-08-19T02:35:02.405Z,63.48
2018-08-19T02:36:02.395Z,63.09
2018-08-19T02:37:02.396Z,62.42
2018-08-19T02:38:02.386Z,62.71
2018-08-19T02:39:02.368Z,62.81
2018-08-19T02:40:02.367Z,62.90
2018-08-19T02:41:02.354Z,63.00
2018-08-19T02:42:02.332Z,63.48
2018-08-19T02:43:02.345Z,63.12
2018-08-19T02:44:02.398Z,63.48
2018-08-19T02:45:02.305Z,63.22
2018-08-19T02:46:02.291Z,63.03
2018-08-19T02:47:02.303Z,63.19
2018-08-19T02:48:02.281Z,63.48
2018-08-19T02:49:02.268Z,63.29
2018-08-19T02:50:02.269Z,63.19
2018-08-19T02:51:02.248Z,63.67
2018-08-19T02:52:02.242Z,63.76
2018-08-19T02:53:02.230Z,63.96
2018-08-19T02:54:02.264Z,63.96
2018-08-19T02:55:02.209Z,63.48
2018-08-19T02:56:02.197Z,63.86
2018-08-19T02:57:02.185Z,63.57
2018-08-19T02:58:02.181Z,63.76
2018-08-19T02:59:02.174Z,64.15
2018-08-19T03:00:02.163Z,64.05
2018-08-19T03:01:02.181Z,64.15
2018-08-19T03:02:02.136Z,64.05
2018-08-19T03:03:02.128Z,64.43
2018-08-19T03:04:02.117Z,64.43
2018-08-19T03:05:02.142Z,64.43
2018-08-19T03:06:02.128Z,64.72
2018-08-19T03:07:02.086Z,64.34
2018-08-19T03:08:02.079Z,64.15
2018-08-19T03:09:02.061Z,64.34
2018-08-19T03:10:02.055Z,64.53
2018-08-19T03:11:02.101Z,64.82
2018-08-19T03:12:02.034Z,64.82
2018-08-19T03:13:02.030Z,64.63
2018-08-19T03:14:02.014Z,64.53
2018-08-19T03:15:02.005Z,64.72
2018-08-19T03:16:01.992Z,64.34
2018-08-19T03:17:02.012Z,64.15
2018-08-19T03:18:01.977Z,64.43
2018-08-19T03:19:01.954Z,64.53
2018-08-19T03:20:01.954Z,64.43
2018-08-19T03:21:01.937Z,63.86
2018-08-19T03:22:01.994Z,64.05
2018-08-19T03:23:01.927Z,64.15
2018-08-19T03:24:01.900Z,63.96
2018-08-19T03:25:01.909Z,64.15
2018-08-19T03:26:01.877Z,64.05
2018-08-19T03:27:01.874Z,63.86
2018-08-19T03:28:01.879Z,64.05
2018-08-19T03:29:01.863Z,64.34
2018-08-19T03:30:01.852Z,64.15
2018-08-19T03:31:01.847Z,64.15
2018-08-19T03:32:01.826Z,63.96
2018-08-19T03:33:01.857Z,63.86
2018-08-19T03:34:01.810Z,63.86
2018-08-19T03:35:01.794Z,64.34
2018-08-19T03:36:01.785Z,64.05
2018-08-19T03:37:01.802Z,64.53
2018-08-19T03:38:01.861Z,64.15
2018-08-19T03:39:01.777Z,63.96
2018-08-19T03:40:01.734Z,64.15
2018-08-19T03:41:01.741Z,64.34
2018-08-19T03:42:01.718Z,63.76
2018-08-19T03:43:01.728Z,64.05
2018-08-19T03:44:01.723Z,64.05
2018-08-19T03:45:01.688Z,63.86
2018-08-19T03:46:01.681Z,63.86
2018-08-19T03:47:01.692Z,64.43
2018-08-19T03:48:01.652Z,64.63
2018-08-19T03:49:01.685Z,64.34
2018-08-19T03:50:01.711Z,64.63
2018-08-19T03:51:01.620Z,64.05
2018-08-19T03:52:01.610Z,64.05
2018-08-19T03:53:01.605Z,64.15
2018-08-19T03:54:01.620Z,64.05
2018-08-19T03:55:01.583Z,64.15
2018-08-19T03:56:01.599Z,64.15
2018-08-19T03:57:01.560Z,64.72
2018-08-19T03:58:01.557Z,64.53
2018-08-19T03:59:01.553Z,64.43
2018-08-19T04:00:01.536Z,64.34
2018-08-19T04:01:01.551Z,64.15
2018-08-19T04:02:01.508Z,64.34
2018-08-19T04:03:01.504Z,64.43
2018-08-19T04:04:01.489Z,64.43
2018-08-19T04:05:01.467Z,64.72
2018-08-19T04:06:01.504Z,64.53
2018-08-19T04:07:01.452Z,64.53
2018-08-19T04:08:01.451Z,64.63
2018-08-19T04:09:01.438Z,64.53
2018-08-19T04:10:01.433Z,64.63
2018-08-19T04:11:01.483Z,64.63
2018-08-19T04:12:01.402Z,64.34
2018-08-19T04:13:01.394Z,64.79
2018-08-19T04:14:01.381Z,64.82
2018-08-19T04:15:01.380Z,64.50
2018-08-19T04:16:01.360Z,64.89
2018-08-19T04:17:01.375Z,64.98
2018-08-19T04:18:01.342Z,64.59
2018-08-19T04:19:01.488Z,64.53
2018-08-19T04:20:01.323Z,64.63
2018-08-19T04:21:01.302Z,64.63
2018-08-19T04:22:01.305Z,64.63
2018-08-19T04:23:01.286Z,64.59
2018-08-19T04:24:01.275Z,64.69
2018-08-19T04:25:01.274Z,65.26
2018-08-19T04:26:01.322Z,65.08
2018-08-19T04:27:01.240Z,65.26
2018-08-19T04:28:01.232Z,64.89
2018-08-19T04:29:01.228Z,64.63
2018-08-19T04:30:01.214Z,64.53
2018-08-19T04:31:01.203Z,64.63
2018-08-19T04:32:01.202Z,64.92
2018-08-19T04:33:01.191Z,64.82
2018-08-19T04:34:01.176Z,64.82
2018-08-19T04:35:01.165Z,64.82
2018-08-19T04:36:01.142Z,64.72
2018-08-19T04:37:01.172Z,64.50
2018-08-19T04:38:01.141Z,64.53
2018-08-19T04:39:01.121Z,65.08
2018-08-19T04:40:01.108Z,64.69
2018-08-19T04:41:01.098Z,64.40
2018-08-19T04:42:01.118Z,64.82
2018-08-19T04:43:01.083Z,64.79
2018-08-19T04:44:01.074Z,64.89
2018-08-19T04:45:01.056Z,64.72
2018-08-19T04:46:01.045Z,64.69
2018-08-19T04:47:01.097Z,64.92
2018-08-19T04:48:01.036Z,64.79
2018-08-19T04:49:01.092Z,64.63
2018-08-19T04:50:01.002Z,64.92
2018-08-19T04:51:00.999Z,64.34
2018-08-19T04:52:00.970Z,64.50
2018-08-19T04:53:01.034Z,64.53
2018-08-19T04:54:00.956Z,64.59
2018-08-19T04:55:00.956Z,64.63
2018-08-19T04:56:00.942Z,64.69
2018-08-19T04:57:00.929Z,65.08
2018-08-19T04:58:00.923Z,64.92
2018-08-19T04:59:00.919Z,64.43
2018-08-19T05:00:00.968Z,64.63
2018-08-19T05:01:00.889Z,64.63
2018-08-19T05:02:00.888Z,64.92
2018-08-19T05:03:00.866Z,64.25
2018-08-19T05:04:00.857Z,64.53
2018-08-19T05:05:00.846Z,64.43
2018-08-19T05:06:00.887Z,64.63
2018-08-19T05:07:00.816Z,64.63
2018-08-19T05:08:00.922Z,64.72
2018-08-19T05:09:00.802Z,64.63
2018-08-19T05:10:00.786Z,64.63
2018-08-19T05:11:00.781Z,64.63
2018-08-19T05:12:00.786Z,65.84
2018-08-19T05:13:00.762Z,65.78
2018-08-19T05:14:00.752Z,65.94
2018-08-19T05:15:00.734Z,65.55
2018-08-19T05:16:00.733Z,65.65
2018-08-19T05:17:00.749Z,65.49
2018-08-19T05:18:00.709Z,65.26
2018-08-19T05:19:00.699Z,65.46
2018-08-19T05:20:00.685Z,65.75
2018-08-19T05:21:00.683Z,66.32
2018-08-19T05:22:00.682Z,65.97
2018-08-19T05:23:00.660Z,65.97
2018-08-19T05:24:00.644Z,66.22
2018-08-19T05:25:00.641Z,66.61
2018-08-19T05:26:00.628Z,66.13
2018-08-19T05:27:00.637Z,65.59
2018-08-19T05:28:00.602Z,65.59
2018-08-19T05:29:00.597Z,65.20
2018-08-19T05:30:00.588Z,65.30
2018-08-19T05:31:00.572Z,65.49
2018-08-19T05:32:00.614Z,65.39
2018-08-19T05:33:00.552Z,65.39
2018-08-19T05:34:00.543Z,66.06
2018-08-19T05:35:00.537Z,66.16
2018-08-19T05:36:00.522Z,65.68
2018-08-19T05:37:00.546Z,65.20
2018-08-19T05:38:00.525Z,65.01
2018-08-19T05:39:00.490Z,65.49
2018-08-19T05:40:00.482Z,65.11
2018-08-19T05:41:00.462Z,65.20
2018-08-19T05:42:00.484Z,65.20
2018-08-19T05:43:00.449Z,64.72
2018-08-19T05:44:00.436Z,64.92
2018-08-19T05:45:00.428Z,64.82
2018-08-19T05:46:00.420Z,64.63
2018-08-19T05:47:00.524Z,64.43
2018-08-19T05:48:00.425Z,64.53
2018-08-19T05:49:00.390Z,64.72
2018-08-19T05:50:00.376Z,65.30
2018-08-19T05:51:00.364Z,64.82
2018-08-19T05:52:00.349Z,65.43
2018-08-19T05:53:00.381Z,65.30
2018-08-19T05:54:00.377Z,65.11
2018-08-19T05:55:00.329Z,64.92
2018-08-19T05:56:00.313Z,64.56
2018-08-19T05:57:00.304Z,65.20
2018-08-19T05:58:00.365Z,66.64
2018-08-19T05:59:00.283Z,67.32
2018-08-19T06:00:00.280Z,67.12
2018-08-19T06:01:00.335Z,67.22
2018-08-19T06:02:00.258Z,66.93
2018-08-19T06:03:00.253Z,67.32
2018-08-19T06:04:00.246Z,67.22
2018-08-19T06:05:00.226Z,67.41
2018-08-19T06:06:00.218Z,67.89
2018-08-19T06:07:00.215Z,68.56
2018-08-19T06:08:00.224Z,68.18
2018-08-19T06:09:00.187Z,67.60
2018-08-19T06:10:00.184Z,67.02
2018-08-19T06:11:00.171Z,67.60
2018-08-19T06:12:00.147Z,67.41
2018-08-19T06:13:00.171Z,66.64
2018-08-19T06:14:00.136Z,66.74
2018-08-19T06:15:00.124Z,67.32
2018-08-19T06:16:00.269Z,67.89
2018-08-19T06:17:00.102Z,67.69
2018-08-19T06:18:00.100Z,67.89
2018-08-19T06:19:00.088Z,67.69
2018-08-19T06:20:00.081Z,67.32
2018-08-19T06:21:00.096Z,67.25
2018-08-19T06:22:00.120Z,68.12
2018-08-19T06:23:00.043Z,68.08
2018-08-19T06:24:00.025Z,67.54
2018-08-19T06:25:00.063Z,66.64
2018-08-19T06:26:00.027Z,66.86
2018-08-19T06:27:00.042Z,66.67
2018-08-19T06:27:59.988Z,68.12
2018-08-19T06:29:00.185Z,70.23
2018-08-19T06:29:59.981Z,71.28
2018-08-19T06:30:59.987Z,72.05
2018-08-19T06:31:59.982Z,72.59
2018-08-19T06:32:59.943Z,73.83
2018-08-19T06:33:59.939Z,73.49
2018-08-19T06:35:00.044Z,73.20
2018-08-19T06:35:59.916Z,73.49
2018-08-19T06:36:59.928Z,73.45
2018-08-19T06:37:59.893Z,73.77
2018-08-19T06:38:59.916Z,73.74
2018-08-19T06:39:59.901Z,72.39
2018-08-19T06:40:59.903Z,72.43
2018-08-19T06:41:59.859Z,72.97
2018-08-19T06:42:59.848Z,72.53
2018-08-19T06:43:59.839Z,72.63
2018-08-19T06:44:59.884Z,73.00
2018-08-19T06:45:59.815Z,72.63
2018-08-19T06:46:59.806Z,71.86
2018-08-19T06:47:59.796Z,73.30
2018-08-19T06:48:59.788Z,73.49
2018-08-19T06:49:59.769Z,73.68
2018-08-19T06:50:59.773Z,73.68
2018-08-19T06:51:59.761Z,74.44
2018-08-19T06:52:59.748Z,74.06
2018-08-19T06:53:59.736Z,74.35
2018-08-19T06:54:59.727Z,74.64
2018-08-19T06:55:59.724Z,74.44
2018-08-19T06:56:59.700Z,74.06
2018-08-19T06:57:59.692Z,74.06
2018-08-19T06:58:59.831Z,74.06
2018-08-19T06:59:59.709Z,73.52
2018-08-19T07:00:59.708Z,72.85
2018-08-19T07:01:59.671Z,72.75
2018-08-19T07:02:59.641Z,71.98
2018-08-19T07:03:59.751Z,71.89
2018-08-19T07:04:59.638Z,71.89
2018-08-19T07:05:59.774Z,71.98
2018-08-19T07:06:59.611Z,71.61
2018-08-19T07:07:59.658Z,71.31
2018-08-19T07:08:59.600Z,71.06
2018-08-19T07:09:59.585Z,70.87
2018-08-19T07:10:59.577Z,70.29
2018-08-19T07:11:59.561Z,70.20
2018-08-19T07:12:59.561Z,70.39
2018-08-19T07:13:59.563Z,70.10
2018-08-19T07:14:59.544Z,69.81
2018-08-19T07:15:59.529Z,70.49
2018-08-19T07:16:59.522Z,71.55
2018-08-19T07:17:59.539Z,72.60
2018-08-19T07:18:59.495Z,73.37
2018-08-19T07:19:59.508Z,73.85
2018-08-19T07:20:59.483Z,74.33
2018-08-19T07:21:59.473Z,73.94
2018-08-19T07:22:59.469Z,74.23
2018-08-19T07:23:59.461Z,73.75
2018-08-19T07:24:59.459Z,73.18
2018-08-19T07:25:59.447Z,73.66
2018-08-19T07:26:59.424Z,73.56
2018-08-19T07:27:59.425Z,74.33
2018-08-19T07:28:59.419Z,73.75
2018-08-19T07:29:59.402Z,72.60
2018-08-19T07:30:59.432Z,73.18
2018-08-19T07:31:59.384Z,72.89
2018-08-19T07:32:59.371Z,73.37
2018-08-19T07:33:59.370Z,73.37
2018-08-19T07:34:59.372Z,73.75
2018-08-19T07:35:59.377Z,72.99
2018-08-19T07:36:59.520Z,72.64
2018-08-19T07:37:59.341Z,73.50
2018-08-19T07:38:59.317Z,73.18
2018-08-19T07:39:59.317Z,74.27
2018-08-19T07:40:59.329Z,73.60
2018-08-19T07:41:59.289Z,73.69
2018-08-19T07:42:59.318Z,73.79
2018-08-19T07:43:59.343Z,73.60
2018-08-19T07:44:59.270Z,73.41
2018-08-19T07:45:59.262Z,73.41
2018-08-19T07:46:59.249Z,73.69
2018-08-19T07:47:59.273Z,72.92
2018-08-19T07:48:59.338Z,72.06
2018-08-19T07:49:59.229Z,72.09
2018-08-19T07:50:59.220Z,71.81
2018-08-19T07:51:59.240Z,71.91
2018-08-19T07:52:59.205Z,72.00
2018-08-19T07:53:59.223Z,72.00
2018-08-19T07:54:59.187Z,71.71
2018-08-19T07:55:59.165Z,71.81
2018-08-19T07:56:59.191Z,72.77
2018-08-19T07:57:59.156Z,72.19
2018-08-19T07:58:59.199Z,72.19
2018-08-19T07:59:59.141Z,72.48
2018-08-19T08:00:59.133Z,72.09
2018-08-19T08:01:59.371Z,71.81
2018-08-19T08:02:59.114Z,71.94
2018-08-19T08:03:59.107Z,71.71
2018-08-19T08:04:59.119Z,71.75
2018-08-19T08:05:59.097Z,70.98
2018-08-19T08:06:59.082Z,70.68
2018-08-19T08:07:59.106Z,71.55
2018-08-19T08:08:59.281Z,70.50
2018-08-19T08:09:59.086Z,69.92
2018-08-19T08:10:59.082Z,69.73
2018-08-19T08:11:59.040Z,69.53
2018-08-19T08:12:59.039Z,68.96
2018-08-19T08:13:59.088Z,68.67
2018-08-19T08:14:59.007Z,68.67
2018-08-19T08:15:59.002Z,68.86
2018-08-19T08:16:58.989Z,68.38
2018-08-19T08:17:58.996Z,68.86
2018-08-19T08:18:58.990Z,68.09
2018-08-19T08:19:59.002Z,68.19
2018-08-19T08:20:58.983Z,68.29
2018-08-19T08:21:58.963Z,68.09
2018-08-19T08:22:58.955Z,67.32
2018-08-19T08:23:58.938Z,67.65
2018-08-19T08:24:58.984Z,67.45
2018-08-19T08:25:58.914Z,66.88
2018-08-19T08:26:58.917Z,66.68
2018-08-19T08:27:58.922Z,66.49
2018-08-19T08:28:58.957Z,66.68
2018-08-19T08:29:58.899Z,67.74
2018-08-19T08:30:58.883Z,67.26
2018-08-19T08:31:58.886Z,67.07
2018-08-19T08:32:58.868Z,66.01
2018-08-19T08:33:58.907Z,66.97
2018-08-19T08:34:58.854Z,66.78
2018-08-19T08:35:58.832Z,65.91
2018-08-19T08:36:58.835Z,66.01
2018-08-19T08:37:58.840Z,65.63
2018-08-19T08:38:58.814Z,66.30
2018-08-19T08:39:58.846Z,66.20
2018-08-19T08:40:58.801Z,65.63
2018-08-19T08:41:58.798Z,65.91
2018-08-19T08:42:58.782Z,66.30
2018-08-19T08:43:58.792Z,66.04
2018-08-19T08:44:58.820Z,65.66
2018-08-19T08:45:58.757Z,65.94
2018-08-19T08:46:58.761Z,66.52
2018-08-19T08:47:58.848Z,66.04
2018-08-19T08:48:58.748Z,66.52
2018-08-19T08:49:58.734Z,65.01
2018-08-19T08:50:58.762Z,64.21
2018-08-19T08:51:58.723Z,64.82
2018-08-19T08:52:58.713Z,64.92
2018-08-19T08:53:58.706Z,65.01
2018-08-19T08:54:58.688Z,64.63
2018-08-19T08:55:58.709Z,65.01
2018-08-19T08:56:58.728Z,64.82
2018-08-19T08:57:58.672Z,64.73
2018-08-19T08:58:58.824Z,64.63
2018-08-19T08:59:58.644Z,64.43
2018-08-19T09:00:58.643Z,64.95
2018-08-19T09:01:58.700Z,64.34
2018-08-19T09:02:58.627Z,64.18
2018-08-19T09:03:58.623Z,63.98
2018-08-19T09:04:58.622Z,64.66
2018-08-19T09:05:58.613Z,64.18
2018-08-19T09:06:58.603Z,64.28
2018-08-19T09:07:58.601Z,63.98
2018-08-19T09:08:58.592Z,64.37
2018-08-19T09:09:58.573Z,63.89
2018-08-19T09:10:58.568Z,64.56
2018-08-19T09:11:58.567Z,64.08
2018-08-19T09:12:58.567Z,63.31
2018-08-19T09:13:58.603Z,63.31
2018-08-19T09:14:58.614Z,63.31
2018-08-19T09:15:58.542Z,63.50
2018-08-19T09:16:58.532Z,63.89
2018-08-19T09:17:58.530Z,63.02
2018-08-19T09:18:58.518Z,62.54
2018-08-19T09:19:58.515Z,62.45
2018-08-19T09:20:58.512Z,62.35
2018-08-19T09:21:58.500Z,62.63
2018-08-19T09:22:58.534Z,62.63
2018-08-19T09:23:58.476Z,61.90
2018-08-19T09:24:58.482Z,62.45
2018-08-19T09:25:58.508Z,61.87
2018-08-19T09:26:58.462Z,61.80
2018-08-19T09:27:58.457Z,62.09
2018-08-19T09:28:58.455Z,62.09
2018-08-19T09:29:58.443Z,61.41
2018-08-19T09:30:58.463Z,61.22
2018-08-19T09:31:58.430Z,60.93
2018-08-19T09:32:58.508Z,61.03
2018-08-19T09:33:58.423Z,60.93
2018-08-19T09:34:58.423Z,60.55
2018-08-19T09:35:58.437Z,60.93
2018-08-19T09:36:58.400Z,61.03
2018-08-19T09:37:58.394Z,60.93
2018-08-19T09:38:58.383Z,60.64
2018-08-19T09:39:58.382Z,60.83
2018-08-19T09:40:58.379Z,60.45
2018-08-19T09:41:58.354Z,60.38
2018-08-19T09:42:58.370Z,60.86
2018-08-19T09:43:58.354Z,60.68
2018-08-19T09:44:58.349Z,59.93
2018-08-19T09:45:58.332Z,60.13
2018-08-19T09:46:58.325Z,59.19
2018-08-19T09:47:58.491Z,57.67
2018-08-19T09:48:58.325Z,57.57
2018-08-19T09:49:58.317Z,57.67
2018-08-19T09:50:58.303Z,56.54
2018-08-19T09:51:58.310Z,55.87
2018-08-19T09:52:58.339Z,54.61
2018-08-19T09:53:58.334Z,55.57
2018-08-19T09:54:58.308Z,56.03
2018-08-19T09:55:58.350Z,55.65
2018-08-19T09:56:58.300Z,55.45
2018-08-19T09:57:58.283Z,56.03
2018-08-19T09:58:58.280Z,55.83
2018-08-19T09:59:58.270Z,56.48
2018-08-19T10:00:58.264Z,56.00
2018-08-19T10:01:58.289Z,57.45
2018-08-19T10:02:58.265Z,56.77
2018-08-19T10:03:58.261Z,56.00
2018-08-19T10:04:58.255Z,56.29
2018-08-19T10:05:58.255Z,56.68
2018-08-19T10:06:58.271Z,56.96
2018-08-19T10:07:58.247Z,57.35
2018-08-19T10:08:58.247Z,56.58
2018-08-19T10:09:58.243Z,55.90
2018-08-19T10:10:58.232Z,56.10
2018-08-19T10:11:58.291Z,56.80
2018-08-19T10:12:58.219Z,55.65
2018-08-19T10:13:58.220Z,55.26
2018-08-19T10:14:58.206Z,55.16
2018-08-19T10:15:58.210Z,54.90
2018-08-19T10:16:58.247Z,53.61
2018-08-19T10:17:58.244Z,54.68
2018-08-19T10:18:58.247Z,54.90
2018-08-19T10:19:58.191Z,53.93
2018-08-19T10:20:58.177Z,53.55
2018-08-19T10:21:58.172Z,53.86
2018-08-19T10:22:58.181Z,53.86
2018-08-19T10:23:58.176Z,54.01
2018-08-19T10:24:58.201Z,52.46
2018-08-19T10:25:58.170Z,52.49
2018-08-19T10:26:58.169Z,51.13
2018-08-19T10:27:58.158Z,50.65
2018-08-19T10:28:58.161Z,50.07
2018-08-19T10:29:58.203Z,50.65
2018-08-19T10:30:58.157Z,50.26
2018-08-19T10:31:58.158Z,50.52
2018-08-19T10:32:58.158Z,51.08
2018-08-19T10:33:58.199Z,51.08
2018-08-19T10:35:01.786Z,51.66
2018-08-19T10:35:58.152Z,51.83
2018-08-19T10:36:58.132Z,52.02
2018-08-19T10:37:58.181Z,52.80
2018-08-19T10:38:58.139Z,52.63
2018-08-19T10:39:58.140Z,52.05
2018-08-19T10:40:58.136Z,51.73
2018-08-19T10:41:58.138Z,52.31
2018-08-19T10:42:58.124Z,51.86
2018-08-19T10:43:58.121Z,52.31
2018-08-19T10:44:58.125Z,52.12
2018-08-19T10:45:58.118Z,52.22
2018-08-19T10:46:58.114Z,52.22
2018-08-19T10:47:58.121Z,52.12
2018-08-19T10:48:58.103Z,52.31
2018-08-19T10:49:58.104Z,52.31
2018-08-19T10:50:58.094Z,52.70
2018-08-19T10:51:58.092Z,52.02
2018-08-19T10:52:58.138Z,52.02
2018-08-19T10:53:58.086Z,51.51
2018-08-19T10:54:58.080Z,52.00
2018-08-19T10:55:58.078Z,52.19
2018-08-19T10:56:58.071Z,52.00
2018-08-19T10:57:58.064Z,52.39
2018-08-19T10:58:58.069Z,51.90
2018-08-19T10:59:58.374Z,52.58
2018-08-19T11:00:58.061Z,52.39
2018-08-19T11:01:58.044Z,52.29
2018-08-19T11:02:58.037Z,51.81
2018-08-19T11:03:58.043Z,52.09
2018-08-19T11:04:58.024Z,52.48
2018-08-19T11:05:58.028Z,52.87
2018-08-19T11:06:58.024Z,52.67
2018-08-19T11:07:58.005Z,52.67
2018-08-19T11:08:58.004Z,52.58
2018-08-19T11:09:58.008Z,51.90
2018-08-19T11:10:57.999Z,52.58
2018-08-19T11:11:58.027Z,52.67
2018-08-19T11:12:57.987Z,52.67
2018-08-19T11:13:58.046Z,52.58
2018-08-19T11:14:57.970Z,52.19
2018-08-19T11:15:57.985Z,52.29
2018-08-19T11:16:57.960Z,51.71
2018-08-19T11:17:57.969Z,52.19
2018-08-19T11:18:57.960Z,52.67
2018-08-19T11:19:57.974Z,51.51
2018-08-19T11:20:57.986Z,52.19
2018-08-19T11:21:57.941Z,52.00
2018-08-19T11:22:57.936Z,51.81
2018-08-19T11:23:57.960Z,51.64
2018-08-19T11:24:57.964Z,52.02
2018-08-19T11:25:57.921Z,52.12
2018-08-19T11:26:57.927Z,52.02
2018-08-19T11:27:57.915Z,51.54
2018-08-19T11:28:57.907Z,52.22
2018-08-19T11:29:57.932Z,52.12
2018-08-19T11:30:57.896Z,51.83
2018-08-19T11:31:57.904Z,52.22
2018-08-19T11:32:57.889Z,51.83
2018-08-19T11:33:57.895Z,51.44
2018-08-19T11:34:57.878Z,51.44
2018-08-19T11:35:57.865Z,52.22
2018-08-19T11:36:57.871Z,51.64
2018-08-19T11:37:57.860Z,51.93
2018-08-19T11:38:57.862Z,52.22
2018-08-19T11:39:57.855Z,52.02
2018-08-19T11:40:57.883Z,51.95
2018-08-19T11:41:57.862Z,51.44
2018-08-19T11:42:57.894Z,50.70
2018-08-19T11:43:59.825Z,51.18
2018-08-19T11:44:57.825Z,51.44
2018-08-19T11:45:57.849Z,50.79
2018-08-19T11:46:57.804Z,51.08
2018-08-19T11:47:57.807Z,51.86
2018-08-19T11:48:57.808Z,51.08
2018-08-19T11:49:57.833Z,51.37
2018-08-19T11:50:57.789Z,51.18
2018-08-19T11:51:57.792Z,51.08
2018-08-19T11:52:57.788Z,51.08
2018-08-19T11:53:57.772Z,50.89
2018-08-19T11:54:57.838Z,51.56
2018-08-19T11:55:57.767Z,51.28
2018-08-19T11:56:57.765Z,51.76
2018-08-19T11:57:57.763Z,51.47
2018-08-19T11:58:57.757Z,50.60
2018-08-19T11:59:57.742Z,50.50
2018-08-19T12:00:57.795Z,49.44
2018-08-19T12:01:57.746Z,50.50
2018-08-19T12:02:57.731Z,50.50
2018-08-19T12:03:57.724Z,50.70
2018-08-19T12:04:57.727Z,50.50
2018-08-19T12:05:57.723Z,50.50
2018-08-19T12:06:57.741Z,49.82
2018-08-19T12:07:57.716Z,49.54
2018-08-19T12:08:57.694Z,50.12
2018-08-19T12:09:58.224Z,49.92
2018-08-19T12:10:57.694Z,49.92
2018-08-19T12:11:58.129Z,49.82
2018-08-19T12:12:57.680Z,50.02
2018-08-19T12:13:57.675Z,50.02
2018-08-19T12:14:57.675Z,50.50
2018-08-19T12:15:57.673Z,50.52
2018-08-19T12:16:58.349Z,49.37
2018-08-19T12:17:57.660Z,49.56
2018-08-19T12:18:57.644Z,49.65
2018-08-19T12:19:57.650Z,49.07
2018-08-19T12:20:58.250Z,49.46
2018-08-19T12:21:57.928Z,48.30
2018-08-19T12:22:57.638Z,48.39
2018-08-19T12:23:57.637Z,48.76
2018-08-19T12:24:57.625Z,48.79
2018-08-19T12:25:57.626Z,49.37
2018-08-19T12:26:57.621Z,48.39
2018-08-19T12:27:57.647Z,49.07
2018-08-19T12:28:57.617Z,49.56
2018-08-19T12:29:57.603Z,48.59
2018-08-19T12:30:57.601Z,49.17
2018-08-19T12:31:57.742Z,48.79
2018-08-19T12:32:57.605Z,48.69
2018-08-19T12:33:57.586Z,48.69
2018-08-19T12:34:57.590Z,49.27
2018-08-19T12:35:57.581Z,49.56
2018-08-19T12:36:57.597Z,48.61
2018-08-19T12:37:57.582Z,48.42
2018-08-19T12:38:57.567Z,49.39
2018-08-19T12:39:57.577Z,48.42
2018-08-19T12:40:57.564Z,48.13
2018-08-19T12:41:57.558Z,47.36
2018-08-19T12:42:57.573Z,47.36
2018-08-19T12:43:57.552Z,46.97
2018-08-19T12:44:57.588Z,48.22
2018-08-19T12:45:57.538Z,46.97
2018-08-19T12:46:57.541Z,47.64
2018-08-19T12:47:57.567Z,46.97
2018-08-19T12:48:57.531Z,46.87
2018-08-19T12:49:57.515Z,46.39
2018-08-19T12:50:57.526Z,46.87
2018-08-19T12:51:57.523Z,47.06